KDCA/DCA METAR and TAF weather

Enter ICAO airport designator
Station Type Date Time Source
KDCA METAR 2019/10/20 18:52 UTC NOAA

KDCA 201852Z 02014G21KT 1 3/4SM RA BR OVC008 14/13 A2985 RMK AO2 SLP107 P0015 T01440133


Station Type Date Time Source
KDCA Decoded METAR 2019/10/20 18:52 UTC NOAA

WASHINGTON NATIONAL AIRPORT , VA, United States (KDCA) 38-51N 077-02W 18M
Oct 20, 2019 - 02:52 PM EDT / 2019.10.20 1852 UTC
Wind: from the NNE (020 degrees) at 16 MPH (14 KT) gusting to 24 MPH (21 KT):0
Visibility: 1 3/4 mile(s):0
Sky conditions: overcast
Weather: rain; mist
Precipitation last hour: 0.15 inches
Temperature: 57.9 F (14.4 C)
Dew Point: 55.9 F (13.3 C)
Relative Humidity: 93%
Pressure (altimeter): 29.85 in. Hg (1010 hPa)
ob: KDCA 201852Z 02014G21KT 1 3/4SM RA BR OVC008 14/13 A2985 RMK AO2 SLP107 P0015 T01440133
cycle: 19

Station Type Date Time Source
KDCA TAF 2019/10/20 18:30 UTC NOAA

TAF KDCA 201727Z 2018/2124 03015G21KT 2SM -RA BR OVC009
FM202100 01009KT 3SM BR OVC008
FM210300 35007KT P6SM OVC008
FM211400 36004KT P6SM BKN025
FM211600 VRB03KT P6SM SCT250

Example: see airport list